createdAt,value
2018-07-09T00:01:52.700Z,13.70
2018-07-09T00:04:20.961Z,13.60
2018-07-09T00:07:00.890Z,13.50
2018-07-09T00:09:31.219Z,13.50
2018-07-09T00:11:59.571Z,13.40
2018-07-09T00:14:28.205Z,13.40
2018-07-09T00:16:56.426Z,13.40
2018-07-09T00:19:31.106Z,13.30
2018-07-09T00:21:59.349Z,13.30
2018-07-09T00:24:33.886Z,13.20
2018-07-09T00:27:09.399Z,13.20
2018-07-09T00:29:37.978Z,13.10
2018-07-09T00:32:06.382Z,13.10
2018-07-09T00:34:34.753Z,13.00
2018-07-09T00:37:07.277Z,13.00
2018-07-09T00:39:47.187Z,12.90
2018-07-09T00:42:19.657Z,12.90
2018-07-09T00:44:54.253Z,12.80
2018-07-09T00:47:25.453Z,12.80
2018-07-09T00:50:01.514Z,12.70
2018-07-09T00:52:29.944Z,12.70
2018-07-09T00:55:01.329Z,12.60
2018-07-09T00:57:38.245Z,12.60
2018-07-09T01:00:10.431Z,12.50
2018-07-09T01:02:38.662Z,12.50
2018-07-09T01:05:13.193Z,12.40
2018-07-09T01:07:47.723Z,12.40
2018-07-09T01:10:22.293Z,12.30
2018-07-09T01:12:50.619Z,12.30
2018-07-09T01:15:25.235Z,12.20
2018-07-09T01:17:53.795Z,12.20
2018-07-09T01:20:22.329Z,12.20
2018-07-09T01:22:50.564Z,12.10
2018-07-09T01:25:23.913Z,12.10
2018-07-09T01:27:58.629Z,12.10
2018-07-09T01:30:34.734Z,12.00
2018-07-09T01:33:08.355Z,12.00
2018-07-09T01:35:36.600Z,12.00
2018-07-09T01:38:08.074Z,11.90
2018-07-09T01:40:42.822Z,11.90
2018-07-09T01:43:11.279Z,11.90
2018-07-09T01:45:39.528Z,11.90
2018-07-09T01:48:14.199Z,11.90
2018-07-09T01:50:47.360Z,11.90
2018-07-09T01:53:20.982Z,11.90
2018-07-09T01:55:54.164Z,11.90
2018-07-09T01:58:32.191Z,11.80
2018-07-09T02:01:00.413Z,11.80
2018-07-09T02:06:01.626Z,11.80
2018-07-09T02:08:29.870Z,11.80
2018-07-09T02:11:04.645Z,11.70
2018-07-09T02:13:32.861Z,11.70
2018-07-09T02:16:05.297Z,11.70
2018-07-09T02:18:36.411Z,11.60
2018-07-09T02:21:16.298Z,11.60
2018-07-09T02:23:44.521Z,11.50
2018-07-09T02:26:19.076Z,11.50
2018-07-09T02:28:58.649Z,11.50
2018-07-09T02:31:26.846Z,11.50
2018-07-09T02:34:01.621Z,11.50
2018-07-09T02:36:29.854Z,11.50
2018-07-09T02:39:02.363Z,11.50
2018-07-09T02:41:47.328Z,11.40
2018-07-09T02:44:20.700Z,11.40
2018-07-09T02:46:59.193Z,11.40
2018-07-09T02:49:30.677Z,11.30
2018-07-09T02:52:12.795Z,11.30
2018-07-09T02:54:41.289Z,11.30
2018-07-09T02:57:09.819Z,11.30
2018-07-09T02:59:40.050Z,11.30
2018-07-09T03:02:08.453Z,11.30
2018-07-09T03:04:36.684Z,11.40
2018-07-09T03:07:11.442Z,11.50
2018-07-09T03:09:39.671Z,11.50
2018-07-09T03:12:10.676Z,11.60
2018-07-09T03:14:39.116Z,11.70
2018-07-09T03:17:07.495Z,11.70
2018-07-09T03:19:35.765Z,11.80
2018-07-09T03:22:08.365Z,11.90
2018-07-09T03:24:36.609Z,11.90
2018-07-09T03:27:16.709Z,12.00
2018-07-09T03:29:55.168Z,12.00
2018-07-09T03:32:27.424Z,12.00
2018-07-09T03:34:55.630Z,12.00
2018-07-09T03:37:24.460Z,12.00
2018-07-09T03:39:52.771Z,12.10
2018-07-09T03:42:21.065Z,12.00
2018-07-09T03:44:49.382Z,12.00
2018-07-09T03:47:24.502Z,12.00
2018-07-09T03:49:54.867Z,12.00
2018-07-09T03:52:23.270Z,12.00
2018-07-09T03:54:51.528Z,12.00
2018-07-09T03:57:19.728Z,12.00
2018-07-09T03:59:48.009Z,12.00
2018-07-09T04:02:18.539Z,11.90
2018-07-09T04:04:54.659Z,11.90
2018-07-09T04:07:22.956Z,11.90
2018-07-09T04:09:51.155Z,11.90
2018-07-09T04:12:25.798Z,11.90
2018-07-09T04:14:59.146Z,11.80
2018-07-09T04:20:09.445Z,11.70
2018-07-09T04:22:37.635Z,11.70
2018-07-09T04:25:08.943Z,11.70
2018-07-09T04:27:39.941Z,11.60
2018-07-09T04:30:08.497Z,11.60
2018-07-09T04:32:39.710Z,11.70
2018-07-09T04:35:08.122Z,11.70
2018-07-09T04:37:36.506Z,11.90
2018-07-09T04:40:13.167Z,12.20
2018-07-09T04:45:20.486Z,12.60
2018-07-09T04:47:51.807Z,12.70
2018-07-09T04:52:50.312Z,12.90
2018-07-09T04:55:21.380Z,13.00
2018-07-09T04:57:57.048Z,13.20
2018-07-09T05:00:30.024Z,13.40
2018-07-09T05:02:58.502Z,13.50
2018-07-09T05:05:26.926Z,13.60
2018-07-09T05:07:55.159Z,13.70
2018-07-09T05:10:26.260Z,13.80
2018-07-09T05:13:00.742Z,13.90
2018-07-09T05:15:34.884Z,14.00
2018-07-09T05:18:03.364Z,14.20
2018-07-09T05:20:31.706Z,14.20
2018-07-09T05:22:59.933Z,14.30
2018-07-09T05:25:34.709Z,14.50
2018-07-09T05:28:02.950Z,14.80
2018-07-09T05:30:35.342Z,15.10
2018-07-09T05:33:06.422Z,15.50
2018-07-09T05:35:34.738Z,15.90
2018-07-09T05:38:03.203Z,16.40
2018-07-09T05:40:31.667Z,16.90
2018-07-09T05:42:59.860Z,17.30
2018-07-09T05:45:35.486Z,17.70
2018-07-09T05:48:06.582Z,18.10
2018-07-09T05:50:46.573Z,18.60
2018-07-09T05:53:15.691Z,19.00
2018-07-09T05:55:48.009Z,19.30
2018-07-09T05:58:22.351Z,19.60
2018-07-09T06:00:53.401Z,19.90
2018-07-09T06:03:21.646Z,20.10
2018-07-09T06:05:50.092Z,20.10
2018-07-09T06:08:24.079Z,20.40
2018-07-09T06:10:54.897Z,20.70
2018-07-09T06:13:23.091Z,20.90
2018-07-09T06:15:54.585Z,21.00
2018-07-09T06:18:36.191Z,21.10
2018-07-09T06:21:08.607Z,21.20
2018-07-09T06:23:51.424Z,21.30
2018-07-09T06:26:19.835Z,21.30
2018-07-09T06:28:48.095Z,21.50
2018-07-09T06:31:21.238Z,21.70
2018-07-09T06:33:51.538Z,21.90
2018-07-09T06:36:19.761Z,22.00
2018-07-09T06:38:48.063Z,21.80
2018-07-09T06:41:21.168Z,21.70
2018-07-09T06:43:55.062Z,21.50
2018-07-09T06:46:23.350Z,21.30
2018-07-09T06:48:58.167Z,20.90
2018-07-09T06:51:26.391Z,20.90
2018-07-09T06:54:01.762Z,21.10
2018-07-09T06:56:36.237Z,21.40
2018-07-09T06:59:14.027Z,21.30
2018-07-09T07:01:42.255Z,21.30
2018-07-09T07:04:13.319Z,21.80
2018-07-09T07:06:44.834Z,22.30
2018-07-09T07:09:17.051Z,22.80
2018-07-09T07:11:48.720Z,23.00
2018-07-09T07:14:32.784Z,23.20
2018-07-09T07:17:01.427Z,23.10
2018-07-09T07:19:43.489Z,22.90
2018-07-09T07:22:11.765Z,22.80
2018-07-09T07:27:19.737Z,22.70
2018-07-09T07:29:48.008Z,22.70
2018-07-09T07:32:22.697Z,23.00
2018-07-09T07:34:51.170Z,23.10
2018-07-09T07:37:29.754Z,23.00
2018-07-09T07:39:58.011Z,22.60
2018-07-09T07:42:33.024Z,22.20
2018-07-09T07:45:09.875Z,22.10
2018-07-09T07:47:40.324Z,22.10
2018-07-09T07:50:13.548Z,22.20
2018-07-09T07:52:46.887Z,22.30
2018-07-09T07:55:17.084Z,22.30
2018-07-09T07:57:46.090Z,22.30
2018-07-09T08:00:17.378Z,22.40
2018-07-09T08:02:57.410Z,22.50
2018-07-09T08:05:25.665Z,22.70
2018-07-09T08:07:59.089Z,22.70
2018-07-09T08:10:27.705Z,22.70
2018-07-09T08:13:27.165Z,22.70
2018-07-09T08:15:34.735Z,22.70
2018-07-09T08:18:03.035Z,22.70
2018-07-09T08:20:31.331Z,22.60
2018-07-09T08:23:04.459Z,22.50
2018-07-09T08:25:44.553Z,22.50
2018-07-09T08:28:12.730Z,22.40
2018-07-09T08:30:47.009Z,22.50
2018-07-09T08:33:17.988Z,22.70
2018-07-09T08:35:46.386Z,22.90
2018-07-09T08:43:15.691Z,22.90
2018-07-09T08:45:46.791Z,22.70
2018-07-09T08:48:19.002Z,22.50
2018-07-09T08:50:47.355Z,22.40
2018-07-09T08:53:15.573Z,22.60
2018-07-09T08:55:46.622Z,22.60
2018-07-09T08:58:25.364Z,22.50
2018-07-09T09:00:58.465Z,22.50
2018-07-09T09:03:38.528Z,22.50
2018-07-09T09:06:06.920Z,22.60
2018-07-09T09:08:35.153Z,22.70
2018-07-09T09:11:06.360Z,22.60
2018-07-09T09:13:37.647Z,22.60
2018-07-09T09:16:06.301Z,22.70
2018-07-09T09:18:37.779Z,22.80
2018-07-09T09:23:51.044Z,22.90
2018-07-09T09:26:22.056Z,22.90
2018-07-09T09:29:02.939Z,22.60
2018-07-09T09:31:36.440Z,22.60
2018-07-09T09:34:14.286Z,22.40
2018-07-09T09:36:42.811Z,22.30
2018-07-09T09:39:13.018Z,22.00
2018-07-09T09:41:41.274Z,21.80
2018-07-09T09:44:14.079Z,21.70
2018-07-09T09:46:42.554Z,21.50
2018-07-09T09:49:11.039Z,21.40
2018-07-09T09:51:39.441Z,21.30
2018-07-09T09:54:07.599Z,21.10
2018-07-09T09:56:42.833Z,21.00
2018-07-09T09:59:16.136Z,21.00
2018-07-09T10:01:52.248Z,21.00
2018-07-09T10:04:20.458Z,20.90
2018-07-09T10:06:53.933Z,20.80
2018-07-09T10:09:34.536Z,20.70
2018-07-09T10:12:02.879Z,20.60
2018-07-09T10:14:42.728Z,20.60
2018-07-09T10:17:12.934Z,20.50
2018-07-09T10:19:41.263Z,20.50
2018-07-09T10:22:12.283Z,20.50
2018-07-09T10:24:42.539Z,20.70
2018-07-09T10:27:11.291Z,21.10
2018-07-09T10:29:54.706Z,21.60
2018-07-09T10:32:27.222Z,22.00
2018-07-09T10:35:01.678Z,22.40
2018-07-09T10:37:32.869Z,22.80
2018-07-09T10:40:04.811Z,22.90
2018-07-09T10:42:39.528Z,22.80
2018-07-09T10:45:07.718Z,22.60
2018-07-09T10:47:38.976Z,22.40
2018-07-09T10:50:14.505Z,22.40
2018-07-09T10:52:45.446Z,22.40
2018-07-09T10:55:13.683Z,22.20
2018-07-09T10:57:47.030Z,22.10
2018-07-09T11:00:21.773Z,22.10
2018-07-09T11:02:49.911Z,22.20
2018-07-09T11:05:24.309Z,22.40
2018-07-09T11:07:59.628Z,22.70
2018-07-09T11:10:39.848Z,23.00
2018-07-09T11:13:19.532Z,23.00
2018-07-09T11:15:54.312Z,23.20
2018-07-09T11:18:22.595Z,23.40
2018-07-09T11:20:55.738Z,23.60
2018-07-09T11:23:26.017Z,23.80
2018-07-09T11:25:57.878Z,23.90
2018-07-09T11:28:28.782Z,24.00
2018-07-09T11:30:57.006Z,24.20
2018-07-09T11:33:31.626Z,24.40
2018-07-09T11:35:59.882Z,24.60
2018-07-09T11:38:37.718Z,24.40
2018-07-09T11:41:06.009Z,24.50
2018-07-09T11:43:34.335Z,24.60
2018-07-09T11:46:14.275Z,25.00
2018-07-09T11:48:52.790Z,25.50
2018-07-09T11:51:31.132Z,25.50
2018-07-09T11:54:16.970Z,25.30
2018-07-09T11:56:45.326Z,25.20
2018-07-09T11:59:21.995Z,24.80
2018-07-09T12:01:50.266Z,24.60
2018-07-09T12:04:25.405Z,24.40
2018-07-09T12:07:03.659Z,24.10
2018-07-09T12:09:34.102Z,23.90
2018-07-09T12:12:04.718Z,23.90
2018-07-09T12:14:44.685Z,24.00
2018-07-09T12:17:12.929Z,24.20
2018-07-09T12:19:46.107Z,24.50
2018-07-09T12:22:26.724Z,24.80
2018-07-09T12:24:58.080Z,25.00
2018-07-09T12:27:45.279Z,25.10
2018-07-09T12:30:24.836Z,25.40
2018-07-09T12:33:00.370Z,25.70
2018-07-09T12:35:31.887Z,26.00
2018-07-09T12:38:00.807Z,26.10
2018-07-09T12:40:29.807Z,26.10
2018-07-09T12:43:17.020Z,26.20
2018-07-09T12:45:52.473Z,26.40
2018-07-09T12:48:28.789Z,26.50
2018-07-09T12:51:01.947Z,26.40
2018-07-09T12:53:32.467Z,26.30
2018-07-09T12:56:02.882Z,26.10
2018-07-09T12:58:35.659Z,26.00
2018-07-09T13:01:08.965Z,26.00
2018-07-09T13:03:40.425Z,25.90
2018-07-09T13:06:15.251Z,25.70
2018-07-09T13:08:50.501Z,25.50
2018-07-09T13:11:24.140Z,25.50
2018-07-09T13:13:56.865Z,25.70
2018-07-09T13:16:27.934Z,25.70
2018-07-09T13:19:06.862Z,25.40
2018-07-09T13:21:37.954Z,25.30
2018-07-09T13:24:06.668Z,25.20
2018-07-09T13:26:35.136Z,25.20
2018-07-09T13:29:06.052Z,25.30
2018-07-09T13:31:40.522Z,25.30
2018-07-09T13:34:13.879Z,25.30
2018-07-09T13:36:45.761Z,25.30
2018-07-09T13:39:17.055Z,25.30
2018-07-09T13:41:55.409Z,25.30
2018-07-09T13:44:24.597Z,25.40
2018-07-09T13:46:55.818Z,25.40
2018-07-09T13:49:24.728Z,25.40
2018-07-09T13:51:57.061Z,25.20
2018-07-09T13:54:33.472Z,24.90
2018-07-09T13:57:04.851Z,24.60
2018-07-09T13:59:36.689Z,24.50
2018-07-09T14:02:14.921Z,24.50
2018-07-09T14:04:48.555Z,24.70
2018-07-09T14:07:21.873Z,24.80
2018-07-09T14:10:00.267Z,24.70
2018-07-09T14:12:36.485Z,24.70
2018-07-09T14:15:10.371Z,24.70
2018-07-09T14:17:46.588Z,24.50
2018-07-09T14:22:57.393Z,24.10
2018-07-09T14:25:32.039Z,23.80
2018-07-09T14:28:11.502Z,23.60
2018-07-09T14:30:44.885Z,23.40
2018-07-09T14:33:18.433Z,23.20
2018-07-09T14:35:53.918Z,23.10
2018-07-09T14:38:33.006Z,22.80
2018-07-09T14:41:12.386Z,22.50
2018-07-09T14:43:48.846Z,22.10
2018-07-09T14:46:24.075Z,22.00
2018-07-09T14:49:10.649Z,21.90
2018-07-09T14:51:46.384Z,21.90
2018-07-09T14:54:15.166Z,21.80
2018-07-09T14:56:44.238Z,21.80
2018-07-09T14:59:17.336Z,21.70
2018-07-09T15:01:53.683Z,21.70
2018-07-09T15:04:24.969Z,21.80
2018-07-09T15:06:54.130Z,22.00
2018-07-09T15:09:27.766Z,22.30
2018-07-09T15:11:56.097Z,22.50
2018-07-09T15:17:10.175Z,22.70
2018-07-09T15:19:39.326Z,23.00
2018-07-09T15:22:12.726Z,23.10
2018-07-09T15:24:54.505Z,23.20
2018-07-09T15:27:26.226Z,23.30
2018-07-09T15:30:02.682Z,23.20
2018-07-09T15:32:35.191Z,23.00
2018-07-09T15:35:06.741Z,22.90
2018-07-09T15:37:38.587Z,22.70
2018-07-09T15:40:11.870Z,22.50
2018-07-09T15:42:46.726Z,22.40
2018-07-09T15:45:15.567Z,22.30
2018-07-09T15:47:51.320Z,22.20
2018-07-09T15:50:22.615Z,21.90
2018-07-09T15:52:56.890Z,21.60
2018-07-09T15:55:29.087Z,21.30
2018-07-09T15:57:58.102Z,21.10
2018-07-09T16:00:31.438Z,20.90
2018-07-09T16:03:07.773Z,20.80
2018-07-09T16:05:41.050Z,20.80
2018-07-09T16:08:13.827Z,20.80
2018-07-09T16:10:47.055Z,20.90
2018-07-09T16:13:17.930Z,20.90
2018-07-09T16:15:52.247Z,20.90
2018-07-09T16:18:26.471Z,20.90
2018-07-09T16:20:58.887Z,20.80
2018-07-09T16:23:33.477Z,20.80
2018-07-09T16:26:06.043Z,20.80
2018-07-09T16:28:42.405Z,20.90
2018-07-09T16:33:44.474Z,20.90
2018-07-09T16:36:25.692Z,21.00
2018-07-09T16:39:08.668Z,21.00
2018-07-09T16:41:37.762Z,21.00
2018-07-09T16:44:13.963Z,20.90
2018-07-09T16:46:52.094Z,20.80
2018-07-09T16:49:20.629Z,20.70
2018-07-09T16:51:57.004Z,20.60
2018-07-09T16:54:29.813Z,20.50
2018-07-09T16:57:05.159Z,20.50
2018-07-09T16:59:38.490Z,20.50
2018-07-09T17:02:12.204Z,20.50
2018-07-09T17:04:53.240Z,20.50
2018-07-09T17:07:25.468Z,20.50
2018-07-09T17:09:56.364Z,20.50
2018-07-09T17:12:36.582Z,20.30
2018-07-09T17:15:10.310Z,20.20
2018-07-09T17:17:41.891Z,20.20
2018-07-09T17:20:14.605Z,20.20
2018-07-09T17:22:45.388Z,20.10
2018-07-09T17:25:18.185Z,20.00
2018-07-09T17:27:47.684Z,19.90
2018-07-09T17:30:22.602Z,19.90
2018-07-09T17:32:51.740Z,19.70
2018-07-09T17:35:24.674Z,19.70
2018-07-09T17:37:55.518Z,19.60
2018-07-09T17:40:28.891Z,19.60
2018-07-09T17:42:59.234Z,19.60
2018-07-09T17:45:39.705Z,19.60
2018-07-09T17:48:15.372Z,19.60
2018-07-09T17:50:50.063Z,19.40
2018-07-09T17:53:18.584Z,19.40
2018-07-09T17:55:47.069Z,19.30
2018-07-09T17:58:15.673Z,19.40
2018-07-09T18:00:44.847Z,19.40
2018-07-09T18:03:22.567Z,19.30
2018-07-09T18:05:53.503Z,19.30
2018-07-09T18:08:27.083Z,19.20
2018-07-09T18:11:01.947Z,19.20
2018-07-09T18:16:04.299Z,19.00
2018-07-09T18:18:36.364Z,18.90
2018-07-09T18:21:05.187Z,18.80
2018-07-09T18:23:36.610Z,18.70
2018-07-09T18:26:13.274Z,18.60
2018-07-09T18:28:48.072Z,18.50
2018-07-09T18:31:16.984Z,18.40
2018-07-09T18:33:48.567Z,18.30
2018-07-09T18:36:21.986Z,18.20
2018-07-09T18:38:53.510Z,18.10
2018-07-09T18:41:27.091Z,18.10
2018-07-09T18:43:59.596Z,18.00
2018-07-09T18:46:33.082Z,17.90
2018-07-09T18:49:01.734Z,17.80
2018-07-09T18:51:30.415Z,17.80
2018-07-09T18:53:59.378Z,17.70
2018-07-09T18:56:35.762Z,17.60
2018-07-09T18:59:11.298Z,17.50
2018-07-09T19:01:46.590Z,17.50
2018-07-09T19:04:20.137Z,17.40
2018-07-09T19:09:29.748Z,17.30
2018-07-09T19:12:00.290Z,17.20
2018-07-09T19:14:48.864Z,17.20
2018-07-09T19:17:56.526Z,17.10
2018-07-09T19:21:37.815Z,17.00
2018-07-09T19:24:06.301Z,16.90
2018-07-09T19:26:38.390Z,16.80
2018-07-09T19:29:05.641Z,16.70
2018-07-09T19:31:32.727Z,16.60
2018-07-09T19:34:04.734Z,16.60
2018-07-09T19:36:32.482Z,16.50
2018-07-09T19:38:59.573Z,16.40
2018-07-09T19:41:27.551Z,16.40
2018-07-09T19:43:55.776Z,16.30
2018-07-09T19:46:23.847Z,16.30
2018-07-09T19:48:51.510Z,16.20
2018-07-09T19:51:18.965Z,16.20
2018-07-09T19:53:46.113Z,16.20
2018-07-09T19:56:13.197Z,16.20
2018-07-09T19:58:40.290Z,16.20
2018-07-09T20:01:07.525Z,16.10
2018-07-09T20:03:34.605Z,16.10
2018-07-09T20:06:01.750Z,16.00
2018-07-09T20:08:34.132Z,16.00
2018-07-09T20:11:06.672Z,16.00
2018-07-09T20:13:51.170Z,16.00
2018-07-09T20:16:23.555Z,16.00
2018-07-09T20:18:52.118Z,16.00
2018-07-09T20:21:19.237Z,16.00
2018-07-09T20:23:46.293Z,15.00
2018-07-09T20:26:13.571Z,15.90
2018-07-09T20:28:40.820Z,15.80
2018-07-09T20:31:07.765Z,15.70
2018-07-09T20:33:34.755Z,15.70
2018-07-09T20:36:01.861Z,15.70
2018-07-09T20:38:28.908Z,15.60
2018-07-09T20:40:55.983Z,15.60
2018-07-09T20:43:23.069Z,15.50
2018-07-09T20:45:50.214Z,15.50
2018-07-09T20:48:17.350Z,15.40
2018-07-09T20:50:44.431Z,15.40
2018-07-09T20:53:11.534Z,15.30
2018-07-09T20:58:06.404Z,15.20
2018-07-09T21:00:33.449Z,15.20
2018-07-09T21:03:00.429Z,15.20
2018-07-09T21:05:27.423Z,15.20
2018-07-09T21:07:54.597Z,15.20
2018-07-09T21:10:21.852Z,15.10
2018-07-09T21:12:54.363Z,15.10
2018-07-09T21:15:21.626Z,15.20
2018-07-09T21:17:48.539Z,15.20
2018-07-09T21:20:15.902Z,15.20
2018-07-09T21:22:43.031Z,15.20
2018-07-09T21:25:10.101Z,15.20
2018-07-09T21:27:37.144Z,15.20
2018-07-09T21:30:04.157Z,15.20
2018-07-09T21:32:31.144Z,15.20
2018-07-09T21:34:58.163Z,15.20
2018-07-09T21:37:25.274Z,15.10
2018-07-09T21:39:52.357Z,15.10
2018-07-09T21:42:19.401Z,15.10
2018-07-09T21:44:46.369Z,15.10
2018-07-09T21:47:13.449Z,15.10
2018-07-09T21:49:40.426Z,15.10
2018-07-09T21:52:07.489Z,15.10
2018-07-09T21:54:34.457Z,15.10
2018-07-09T21:57:01.481Z,15.10
2018-07-09T21:59:28.431Z,15.10
2018-07-09T22:01:55.346Z,15.00
2018-07-09T22:04:22.331Z,15.00
2018-07-09T22:06:49.380Z,15.00
2018-07-09T22:09:16.402Z,14.90
2018-07-09T22:11:43.381Z,14.90
2018-07-09T22:14:10.398Z,14.90
2018-07-09T22:16:37.289Z,14.90
2018-07-09T22:19:04.285Z,14.90
2018-07-09T22:21:31.339Z,14.90
2018-07-09T22:23:58.441Z,14.80
2018-07-09T22:26:25.311Z,14.80
2018-07-09T22:28:52.172Z,14.80
2018-07-09T22:31:23.294Z,14.80
2018-07-09T22:33:51.679Z,14.80
2018-07-09T22:36:19.969Z,14.80
2018-07-09T22:38:52.463Z,14.70
2018-07-09T22:41:20.604Z,14.70
2018-07-09T22:43:59.849Z,14.70
2018-07-09T22:46:31.092Z,14.70
2018-07-09T22:48:59.374Z,14.60
2018-07-09T22:51:27.519Z,14.60
2018-07-09T22:54:01.043Z,14.60
2018-07-09T22:56:38.286Z,14.60
2018-07-09T22:59:10.568Z,14.50
2018-07-09T23:01:49.323Z,14.50
2018-07-09T23:04:20.438Z,14.50
2018-07-09T23:06:51.773Z,14.50
2018-07-09T23:13:25.338Z,14.50
2018-07-09T23:17:03.655Z,14.50
2018-07-09T23:21:53.455Z,14.40
2018-07-09T23:24:20.384Z,14.40
2018-07-09T23:26:47.329Z,14.40
2018-07-09T23:29:14.206Z,14.40
2018-07-09T23:31:41.573Z,14.30
2018-07-09T23:34:08.558Z,14.30
2018-07-09T23:36:35.769Z,14.30
2018-07-09T23:39:05.986Z,14.20
2018-07-09T23:41:32.892Z,14.10
2018-07-09T23:43:59.861Z,14.00
2018-07-09T23:46:26.778Z,13.80
2018-07-09T23:48:53.857Z,13.80
2018-07-09T23:51:20.871Z,13.70
2018-07-09T23:53:47.882Z,13.60
2018-07-09T23:58:31.658Z,13.60
